Meloria — IBXK — position and weather

sailwx.info

Track history (hours):
 
Tides and Currents Weather Stations Pressure Air Temp Water Temp Dewpoint Dewpoint Depression Visibility Wind Speed Wind Dir Waves Ship Positions

Meloria

Last reported at 2017-Feb-20 01:32 UTC. Time now 2017-Feb-20 01:45 UTC.
Position N 38°14' E 015°16'.

Length 176 m; draft 7.2 m.

Type: Tanker. MMSI: 247171100.

Date/timePositionNaut miles runAvg speedWind from/ knotsBaromVisibWave heightAir tempDewpointWater temp
2017-Feb-20 01:32N 38°14' E 015°16'0 0.0
2017-Feb-20 00:32N 38°14' E 015°16'0 0.0
2017-Feb-19 23:32N 38°14' E 015°16'0 0.0
2017-Feb-19 22:32N 38°14' E 015°16'0 0.0
2017-Feb-19 21:32N 38°14' E 015°16'3 2.8
2017-Feb-19 20:33N 38°16' E 015°17'1211.6
2017-Feb-19 19:33N 38°28' E 015°19'1515.2
2017-Feb-19 18:33N 38°43' E 015°21'1414.3
2017-Feb-19 17:33N 38°57' E 015°17'  
2017-Feb-16 01:16N 38°54' E 015°19'912.3
2017-Feb-16 00:33N 38°45' E 015°21'1312.8
2017-Feb-15 23:30N 38°32' E 015°20'1213.3
2017-Feb-15 22:33N 38°20' E 015°18'7 6.5
2017-Feb-15 21:29N 38°13' E 015°16'0 0.0
2017-Feb-15 20:29N 38°13' E 015°16'0 0.0
2017-Feb-15 19:29N 38°13' E 015°16'0 0.0
2017-Feb-15 18:29N 38°13' E 015°16'0 0.0
2017-Feb-15 17:29N 38°13' E 015°16'0 0.0
2017-Feb-15 16:29N 38°13' E 015°16'0 0.0
2017-Feb-15 15:29N 38°13' E 015°16'0 0.0
2017-Feb-15 14:29N 38°13' E 015°16'0 0.0
2017-Feb-15 13:29N 38°13' E 015°16'0 0.0
2017-Feb-15 12:29N 38°13' E 015°16'0 0.0
2017-Feb-15 11:29N 38°13' E 015°16'0 0.0
2017-Feb-15 10:29N 38°13' E 015°16'0 0.0
2017-Feb-15 09:29N 38°13' E 015°16'0 0.0
2017-Feb-15 08:29N 38°13' E 015°16'0 0.0
2017-Feb-15 07:29N 38°13' E 015°16'0 0.0
2017-Feb-15 06:29N 38°13' E 015°16'0 0.0
2017-Feb-15 05:29N 38°13' E 015°16'0 0.0
2017-Feb-15 04:29N 38°13' E 015°16'0 0.0
2017-Feb-15 03:29N 38°13' E 015°16'0 0.0
2017-Feb-15 02:29N 38°13' E 015°16'0 0.0
2017-Feb-15 01:23N 38°13' E 015°16'0 0.0
2017-Feb-15 00:29N 38°13' E 015°16'0 0.0
2017-Feb-14 23:22N 38°13' E 015°16'0 0.0
2017-Feb-14 22:28N 38°13' E 015°16'0 0.0
2017-Feb-14 21:28N 38°13' E 015°16'0 0.0
2017-Feb-14 20:28N 38°13' E 015°16'0 0.0
2017-Feb-14 19:28N 38°13' E 015°16'0 0.0
2017-Feb-14 17:28N 38°13' E 015°16'0 0.0
2017-Feb-14 16:28N 38°13' E 015°16'0 0.0
2017-Feb-14 15:28N 38°13' E 015°16'0 0.0
2017-Feb-14 14:28N 38°13' E 015°16'0 0.0
2017-Feb-14 13:22N 38°13' E 015°16'0 0.0
2017-Feb-14 12:28N 38°13' E 015°16'0 0.0
2017-Feb-14 11:28N 38°13' E 015°16'0 0.0
2017-Feb-14 10:34N 38°13' E 015°16'1 0.9
2017-Feb-14 09:30N 38°13' E 015°17'0 0.1
2017-Feb-14 08:33N 38°13' E 015°17'0 0.0
2017-Feb-14 07:33N 38°13' E 015°17'0 0.0
2017-Feb-14 06:33N 38°13' E 015°17'0 0.0
2017-Feb-14 05:33N 38°13' E 015°17'0 0.0
2017-Feb-14 04:33N 38°13' E 015°17'0 0.1
2017-Feb-14 03:33N 38°13' E 015°17'0 0.1
2017-Feb-14 02:33N 38°13' E 015°17'0 0.1
2017-Feb-14 01:33N 38°13' E 015°17'0 0.0
2017-Feb-14 00:33N 38°13' E 015°17'0 0.0
2017-Feb-13 23:33N 38°13' E 015°17'0 0.1
2017-Feb-13 22:33N 38°13' E 015°17'0 0.0
2017-Feb-13 21:33N 38°13' E 015°17'0 0.0
2017-Feb-13 20:33N 38°13' E 015°17'0 0.0
2017-Feb-13 19:33N 38°13' E 015°17'0 0.0
2017-Feb-13 18:33N 38°13' E 015°17'0 0.0
2017-Feb-13 17:33N 38°13' E 015°17'0 0.0
2017-Feb-13 16:33N 38°13' E 015°17'0 0.0
2017-Feb-13 15:33N 38°13' E 015°17'0 0.0
2017-Feb-13 14:33N 38°13' E 015°17'0 0.1
2017-Feb-13 13:33N 38°13' E 015°17'0 0.1
2017-Feb-13 12:33N 38°13' E 015°17'0 0.2
2017-Feb-13 11:33N 38°13' E 015°17'0 0.0
2017-Feb-13 10:33N 38°13' E 015°17'0 0.0
2017-Feb-13 09:33N 38°13' E 015°17'0 0.0
2017-Feb-13 08:33N 38°13' E 015°17'0 0.1
2017-Feb-13 07:27N 38°13' E 015°17'0 0.1
2017-Feb-13 06:33N 38°13' E 015°17'0 0.0
2017-Feb-13 05:30N 38°13' E 015°17'0 0.1
2017-Feb-13 04:29N 38°13' E 015°17'0 0.1
2017-Feb-13 03:29N 38°13' E 015°17'0 0.1
2017-Feb-13 02:29N 38°13' E 015°17'0 0.0
2017-Feb-13 01:29N 38°13' E 015°17'0 0.0
2017-Feb-13 00:29N 38°13' E 015°17'0 0.0
2017-Feb-12 23:29N 38°13' E 015°17'0 0.0
2017-Feb-12 22:29N 38°13' E 015°17'1 0.7
2017-Feb-12 21:33N 38°14' E 015°17'7 6.9
2017-Feb-12 20:33N 38°21' E 015°18'1413.6
2017-Feb-12 19:33N 38°34' E 015°19'1413.6
2017-Feb-12 18:33N 38°48' E 015°21'1313.1
2017-Feb-12 17:32N 38°59' E 015°11'33713.3
2017-Feb-11 16:11N 43°04' E 010°05'914.1
2017-Feb-11 15:33N 43°12' E 010°07'1413.8
2017-Feb-11 14:33N 43°26' E 010°11'9 9.0
2017-Feb-11 13:33N 43°34' E 010°18'2 1.8
2017-Feb-11 12:32N 43°35' E 010°19'0 0.0
2017-Feb-11 11:32N 43°35' E 010°19'0 0.0
2017-Feb-11 10:29N 43°35' E 010°19'0 0.0
2017-Feb-11 09:32N 43°35' E 010°19'0 0.0
2017-Feb-11 08:32N 43°35' E 010°19'0 0.0
2017-Feb-11 07:32N 43°35' E 010°19'0 0.0
2017-Feb-11 06:32N 43°35' E 010°19'0 0.0
2017-Feb-11 05:26N 43°35' E 010°19'0 0.0
2017-Feb-11 04:29N 43°35' E 010°19'0 0.0
2017-Feb-11 03:29N 43°35' E 010°19'0 0.0
2017-Feb-11 02:32N 43°35' E 010°19'0 0.0
2017-Feb-11 01:20N 43°35' E 010°19'0 0.0
2017-Feb-11 00:32N 43°35' E 010°19'0 0.0
2017-Feb-10 23:32N 43°35' E 010°19'0 0.0
2017-Feb-10 22:32N 43°35' E 010°19'0 0.0
2017-Feb-10 21:32N 43°35' E 010°19'0 0.0
2017-Feb-10 20:29N 43°35' E 010°19'0 0.0
2017-Feb-10 19:32N 43°35' E 010°19'0 0.0
2017-Feb-10 18:32N 43°35' E 010°19'0 0.0
2017-Feb-10 17:32N 43°35' E 010°19'0 0.0
2017-Feb-10 16:32N 43°35' E 010°19'0 0.0
2017-Feb-10 15:29N 43°35' E 010°19'0 0.0
2017-Feb-10 14:32N 43°35' E 010°19'0 0.0
2017-Feb-10 13:32N 43°35' E 010°19'0 0.0
2017-Feb-10 12:32N 43°35' E 010°19'0 0.0
2017-Feb-10 11:32N 43°35' E 010°19'0 0.0
2017-Feb-10 10:31N 43°35' E 010°19'0 0.0
2017-Feb-10 09:31N 43°35' E 010°19'0 0.0
2017-Feb-10 08:31N 43°35' E 010°19'1 1.0
2017-Feb-10 07:33N 43°34' E 010°19'4 4.5
2017-Feb-10 06:34N 43°31' E 010°15'9 9.0
2017-Feb-10 05:33N 43°22' E 010°10'1111.1
2017-Feb-10 04:33N 43°12' E 010°06'4 4.5
2017-Feb-10 03:33N 43°07' E 010°05'  
Track history (hours):
 
Tides and Currents Weather Stations Pressure Air Temp Water Temp Dewpoint Dewpoint Depression Visibility Wind Speed Wind Dir Waves Ship Positions

Meloria

Last reported at 2017-Feb-20 01:32 UTC. Time now 2017-Feb-20 01:45 UTC.
Position N 38°14' E 015°16'.

Length 176 m; draft 7.2 m.

Type: Tanker. MMSI: 247171100.

Date/timePositionNaut miles runAvg speedWind from/ knotsBaromVisibWave heightAir tempDewpointWater temp
2017-Feb-20 01:32N 38°14' E 015°16'0 0.0
2017-Feb-20 00:32N 38°14' E 015°16'0 0.0
2017-Feb-19 23:32N 38°14' E 015°16'0 0.0
2017-Feb-19 22:32N 38°14' E 015°16'0 0.0
2017-Feb-19 21:32N 38°14' E 015°16'3 2.8
2017-Feb-19 20:33N 38°16' E 015°17'1211.6
2017-Feb-19 19:33N 38°28' E 015°19'1515.2
2017-Feb-19 18:33N 38°43' E 015°21'1414.3
2017-Feb-19 17:33N 38°57' E 015°17'  
2017-Feb-16 01:16N 38°54' E 015°19'912.3
2017-Feb-16 00:33N 38°45' E 015°21'1312.8
2017-Feb-15 23:30N 38°32' E 015°20'1213.3
2017-Feb-15 22:33N 38°20' E 015°18'7 6.5
2017-Feb-15 21:29N 38°13' E 015°16'0 0.0
2017-Feb-15 20:29N 38°13' E 015°16'0 0.0
2017-Feb-15 19:29N 38°13' E 015°16'0 0.0
2017-Feb-15 18:29N 38°13' E 015°16'0 0.0
2017-Feb-15 17:29N 38°13' E 015°16'0 0.0
2017-Feb-15 16:29N 38°13' E 015°16'0 0.0
2017-Feb-15 15:29N 38°13' E 015°16'0 0.0
2017-Feb-15 14:29N 38°13' E 015°16'0 0.0
2017-Feb-15 13:29N 38°13' E 015°16'0 0.0
2017-Feb-15 12:29N 38°13' E 015°16'0 0.0
2017-Feb-15 11:29N 38°13' E 015°16'0 0.0
2017-Feb-15 10:29N 38°13' E 015°16'0 0.0
2017-Feb-15 09:29N 38°13' E 015°16'0 0.0
2017-Feb-15 08:29N 38°13' E 015°16'0 0.0
2017-Feb-15 07:29N 38°13' E 015°16'0 0.0
2017-Feb-15 06:29N 38°13' E 015°16'0 0.0
2017-Feb-15 05:29N 38°13' E 015°16'0 0.0
2017-Feb-15 04:29N 38°13' E 015°16'0 0.0
2017-Feb-15 03:29N 38°13' E 015°16'0 0.0
2017-Feb-15 02:29N 38°13' E 015°16'0 0.0
2017-Feb-15 01:23N 38°13' E 015°16'0 0.0
2017-Feb-15 00:29N 38°13' E 015°16'0 0.0
2017-Feb-14 23:22N 38°13' E 015°16'0 0.0
2017-Feb-14 22:28N 38°13' E 015°16'0 0.0
2017-Feb-14 21:28N 38°13' E 015°16'0 0.0
2017-Feb-14 20:28N 38°13' E 015°16'0 0.0
2017-Feb-14 19:28N 38°13' E 015°16'0 0.0
2017-Feb-14 17:28N 38°13' E 015°16'0 0.0
2017-Feb-14 16:28N 38°13' E 015°16'0 0.0
2017-Feb-14 15:28N 38°13' E 015°16'0 0.0
2017-Feb-14 14:28N 38°13' E 015°16'0 0.0
2017-Feb-14 13:22N 38°13' E 015°16'0 0.0
2017-Feb-14 12:28N 38°13' E 015°16'0 0.0
2017-Feb-14 11:28N 38°13' E 015°16'0 0.0
2017-Feb-14 10:34N 38°13' E 015°16'1 0.9
2017-Feb-14 09:30N 38°13' E 015°17'0 0.1
2017-Feb-14 08:33N 38°13' E 015°17'0 0.0
2017-Feb-14 07:33N 38°13' E 015°17'0 0.0
2017-Feb-14 06:33N 38°13' E 015°17'0 0.0
2017-Feb-14 05:33N 38°13' E 015°17'0 0.0
2017-Feb-14 04:33N 38°13' E 015°17'0 0.1
2017-Feb-14 03:33N 38°13' E 015°17'0 0.1
2017-Feb-14 02:33N 38°13' E 015°17'0 0.1
2017-Feb-14 01:33N 38°13' E 015°17'0 0.0
2017-Feb-14 00:33N 38°13' E 015°17'0 0.0
2017-Feb-13 23:33N 38°13' E 015°17'0 0.1
2017-Feb-13 22:33N 38°13' E 015°17'0 0.0
2017-Feb-13 21:33N 38°13' E 015°17'0 0.0
2017-Feb-13 20:33N 38°13' E 015°17'0 0.0
2017-Feb-13 19:33N 38°13' E 015°17'0 0.0
2017-Feb-13 18:33N 38°13' E 015°17'0 0.0
2017-Feb-13 17:33N 38°13' E 015°17'0 0.0
2017-Feb-13 16:33N 38°13' E 015°17'0 0.0
2017-Feb-13 15:33N 38°13' E 015°17'0 0.0
2017-Feb-13 14:33N 38°13' E 015°17'0 0.1
2017-Feb-13 13:33N 38°13' E 015°17'0 0.1
2017-Feb-13 12:33N 38°13' E 015°17'0 0.2
2017-Feb-13 11:33N 38°13' E 015°17'0 0.0
2017-Feb-13 10:33N 38°13' E 015°17'0 0.0
2017-Feb-13 09:33N 38°13' E 015°17'0 0.0
2017-Feb-13 08:33N 38°13' E 015°17'0 0.1
2017-Feb-13 07:27N 38°13' E 015°17'0 0.1
2017-Feb-13 06:33N 38°13' E 015°17'0 0.0
2017-Feb-13 05:30N 38°13' E 015°17'0 0.1
2017-Feb-13 04:29N 38°13' E 015°17'0 0.1
2017-Feb-13 03:29N 38°13' E 015°17'0 0.1
2017-Feb-13 02:29N 38°13' E 015°17'0 0.0
2017-Feb-13 01:29N 38°13' E 015°17'0 0.0
2017-Feb-13 00:29N 38°13' E 015°17'0 0.0
2017-Feb-12 23:29N 38°13' E 015°17'0 0.0
2017-Feb-12 22:29N 38°13' E 015°17'1 0.7
2017-Feb-12 21:33N 38°14' E 015°17'7 6.9
2017-Feb-12 20:33N 38°21' E 015°18'1413.6
2017-Feb-12 19:33N 38°34' E 015°19'1413.6
2017-Feb-12 18:33N 38°48' E 015°21'1313.1
2017-Feb-12 17:32N 38°59' E 015°11'33713.3
2017-Feb-11 16:11N 43°04' E 010°05'914.1
2017-Feb-11 15:33N 43°12' E 010°07'1413.8
2017-Feb-11 14:33N 43°26' E 010°11'9 9.0
2017-Feb-11 13:33N 43°34' E 010°18'2 1.8
2017-Feb-11 12:32N 43°35' E 010°19'0 0.0
2017-Feb-11 11:32N 43°35' E 010°19'0 0.0
2017-Feb-11 10:29N 43°35' E 010°19'0 0.0
2017-Feb-11 09:32N 43°35' E 010°19'0 0.0
2017-Feb-11 08:32N 43°35' E 010°19'0 0.0
2017-Feb-11 07:32N 43°35' E 010°19'0 0.0
2017-Feb-11 06:32N 43°35' E 010°19'0 0.0
2017-Feb-11 05:26N 43°35' E 010°19'0 0.0
2017-Feb-11 04:29N 43°35' E 010°19'0 0.0
2017-Feb-11 03:29N 43°35' E 010°19'0 0.0
2017-Feb-11 02:32N 43°35' E 010°19'0 0.0
2017-Feb-11 01:20N 43°35' E 010°19'0 0.0
2017-Feb-11 00:32N 43°35' E 010°19'0 0.0
2017-Feb-10 23:32N 43°35' E 010°19'0 0.0
2017-Feb-10 22:32N 43°35' E 010°19'0 0.0
2017-Feb-10 21:32N 43°35' E 010°19'0 0.0
2017-Feb-10 20:29N 43°35' E 010°19'0 0.0
2017-Feb-10 19:32N 43°35' E 010°19'0 0.0
2017-Feb-10 18:32N 43°35' E 010°19'0 0.0
2017-Feb-10 17:32N 43°35' E 010°19'0 0.0
2017-Feb-10 16:32N 43°35' E 010°19'0 0.0
2017-Feb-10 15:29N 43°35' E 010°19'0 0.0
2017-Feb-10 14:32N 43°35' E 010°19'0 0.0
2017-Feb-10 13:32N 43°35' E 010°19'0 0.0
2017-Feb-10 12:32N 43°35' E 010°19'0 0.0
2017-Feb-10 11:32N 43°35' E 010°19'0 0.0
2017-Feb-10 10:31N 43°35' E 010°19'0 0.0
2017-Feb-10 09:31N 43°35' E 010°19'0 0.0
2017-Feb-10 08:31N 43°35' E 010°19'1 1.0
2017-Feb-10 07:33N 43°34' E 010°19'4 4.5
2017-Feb-10 06:34N 43°31' E 010°15'9 9.0
2017-Feb-10 05:33N 43°22' E 010°10'1111.1
2017-Feb-10 04:33N 43°12' E 010°06'4 4.5
2017-Feb-10 03:33N 43°07' E 010°05'  

Dump ship's entire track history